Observation data for O'Donnell on 08/07/2020      Previous  Date  Next       Current Mesonet Observations  Soil Data  Daily Summary Page  Observations in Plain Language
KOES 070500Z 17009KT 27/16 A2999 RMK A01 T02710158  RH  053%=      5-min Rain = 0
KOES 070505Z 17009KT 27/16 A2999 RMK A01 T02700158  RH  053%=      5-min Rain = 0
KOES 070510Z 17009KT 27/16 A2998 RMK A01 T02720155  RH  051%=      5-min Rain = 0
KOES 070515Z 17009KT 27/15 A2998 RMK A01 T02730154  RH  051%=      5-min Rain = 0
KOES 070520Z 17010G16KT 27/15 A2998 RMK A01 T02740154  RH  050%=      5-min Rain = 0
KOES 070525Z 17010KT 28/15 A2998 RMK A01 T02750151  RH  049%=      5-min Rain = 0
KOES 070530Z 17011KT 28/15 A2998 RMK A01 T02760148  RH  047%=      5-min Rain = 0
KOES 070535Z 18011KT 28/15 A2998 RMK A01 T02780145  RH  046%=      5-min Rain = 0
KOES 070540Z 18011G17KT 28/15 A2998 RMK A01 T02770145  RH  046%=      5-min Rain = 0
KOES 070545Z 18012G17KT 28/14 A2998 RMK A01 T02770143  RH  046%=      5-min Rain = 0
KOES 070550Z 18012KT 28/14 A2998 RMK A01 T02780141  RH  045%=      5-min Rain = 0
KOES 070555Z 18011G16KT 28/14 A2998 RMK A01 T02770141  RH  045%=      5-min Rain = 0
KOES 070600Z 18010KT 27/14 A2998 RMK A01 T02740141  RH  046%=      5-min Rain = 0
KOES 070605Z 18010KT 27/14 A2998 RMK A01 T02740141  RH  046%=      5-min Rain = 0
KOES 070610Z 18011KT 27/14 A2998 RMK A01 T02730141  RH  046%=      5-min Rain = 0
KOES 070615Z 18010KT 27/14 A2998 RMK A01 T02720142  RH  047%=      5-min Rain = 0
KOES 070620Z 18010KT 27/14 A2998 RMK A01 T02710142  RH  047%=      5-min Rain = 0
KOES 070625Z 18010KT 27/14 A2998 RMK A01 T02690143  RH  048%=      5-min Rain = 0
KOES 070630Z 18010KT 27/14 A2998 RMK A01 T02690143  RH  048%=      5-min Rain = 0
KOES 070635Z 18009KT 27/14 A2998 RMK A01 T02680144  RH  049%=      5-min Rain = 0
KOES 070640Z 18009G14KT 27/14 A2999 RMK A01 T02670144  RH  049%=      5-min Rain = 0
KOES 070645Z 18010KT 27/14 A2999 RMK A01 T02670144  RH  049%=      5-min Rain = 0
KOES 070650Z 18010G16KT 27/15 A2999 RMK A01 T02680145  RH  049%=      5-min Rain = 0
KOES 070655Z 18009KT 27/15 A2999 RMK A01 T02680145  RH  049%=      5-min Rain = 0
KOES 070700Z 18009KT 27/15 A30 RMK A01 T02680146  RH  049%=      5-min Rain = 0
KOES 070705Z 18009KT 27/15 A30 RMK A01 T02670147  RH  050%=      5-min Rain = 0
KOES 070710Z 18010G16KT 27/15 A30 RMK A01 T02680147  RH  050%=      5-min Rain = 0
KOES 070715Z 18011KT 27/15 A30 RMK A01 T02690147  RH  049%=      5-min Rain = 0
KOES 070720Z 18010KT 27/15 A30 RMK A01 T02690148  RH  050%=      5-min Rain = 0
KOES 070725Z 18009KT 27/15 A3001 RMK A01 T02680148  RH  050%=      5-min Rain = 0
KOES 070730Z 18011KT 27/15 A3001 RMK A01 T02680148  RH  050%=      5-min Rain = 0
KOES 070735Z 18011KT 27/15 A3001 RMK A01 T02690148  RH  050%=      5-min Rain = 0
KOES 070740Z 18010KT 27/15 A3001 RMK A01 T02690148  RH  050%=      5-min Rain = 0
KOES 070745Z 18011KT 27/15 A3001 RMK A01 T02680148  RH  050%=      5-min Rain = 0
KOES 070750Z 19011KT 27/15 A3001 RMK A01 T02680149  RH  050%=      5-min Rain = 0
KOES 070755Z 19010G15KT 27/15 A3001 RMK A01 T02670149  RH  051%=      5-min Rain = 0
KOES 070800Z 19011G17KT 27/15 A3001 RMK A01 T02670149  RH  051%=      5-min Rain = 0
KOES 070805Z 19011KT 27/15 A3001 RMK A01 T02670150  RH  051%=      5-min Rain = 0
KOES 070810Z 19010KT 27/15 A3002 RMK A01 T02650150  RH  051%=      5-min Rain = 0
KOES 070815Z 20010G15KT 26/15 A3001 RMK A01 T02640151  RH  052%=      5-min Rain = 0
KOES 070820Z 19010KT 26/15 A3002 RMK A01 T02630151  RH  052%=      5-min Rain = 0
KOES 070825Z 20011KT 26/15 A3002 RMK A01 T02630151  RH  052%=      5-min Rain = 0
KOES 070830Z 19011KT 26/15 A3002 RMK A01 T02630151  RH  053%=      5-min Rain = 0
KOES 070835Z 19010KT 26/15 A3002 RMK A01 T02630152  RH  053%=      5-min Rain = 0
KOES 070840Z 19010G15KT 26/15 A3002 RMK A01 T02620152  RH  053%=      5-min Rain = 0
KOES 070845Z 19008KT 26/15 A3002 RMK A01 T02610152  RH  054%=      5-min Rain = 0
KOES 070850Z 19008KT 26/15 A3002 RMK A01 T02600152  RH  054%=      5-min Rain = 0
KOES 070855Z 19008G13KT 26/15 A3002 RMK A01 T02600153  RH  054%=      5-min Rain = 0
KOES 070900Z 18008KT 26/15 A3002 RMK A01 T02600153  RH  054%=      5-min Rain = 0
KOES 070905Z 18009KT 26/15 A3002 RMK A01 T02600153  RH  054%=      5-min Rain = 0
KOES 070910Z 18008KT 26/15 A3002 RMK A01 T02590153  RH  054%=      5-min Rain = 0
KOES 070915Z 18007KT 26/15 A3002 RMK A01 T02580153  RH  055%=      5-min Rain = 0
KOES 070920Z 18007KT 26/15 A3002 RMK A01 T02580154  RH  055%=      5-min Rain = 0
KOES 070925Z 18008KT 26/15 A3002 RMK A01 T02580154  RH  055%=      5-min Rain = 0
KOES 070930Z 18008KT 26/15 A3001 RMK A01 T02580153  RH  055%=      5-min Rain = 0
KOES 070935Z 18008KT 26/15 A3001 RMK A01 T02580153  RH  055%=      5-min Rain = 0
KOES 070940Z 18009KT 26/15 A3001 RMK A01 T02580152  RH  054%=      5-min Rain = 0
KOES 070945Z 18009G14KT 26/15 A3001 RMK A01 T02590152  RH  054%=      5-min Rain = 0
KOES 070950Z 18009KT 26/15 A3001 RMK A01 T02590152  RH  054%=      5-min Rain = 0
KOES 070955Z 18009KT 26/15 A3001 RMK A01 T02580152  RH  054%=      5-min Rain = 0
KOES 071000Z 18008KT 26/15 A3001 RMK A01 T02580152  RH  054%=      5-min Rain = 0
KOES 071005Z 18009KT 26/15 A3002 RMK A01 T02570152  RH  054%=      5-min Rain = 0
KOES 071010Z 18008KT 26/15 A3002 RMK A01 T02570152  RH  055%=      5-min Rain = 0
KOES 071015Z 19008KT 26/15 A3002 RMK A01 T02570152  RH  055%=      5-min Rain = 0
KOES 071020Z 18008KT 26/15 A3002 RMK A01 T02560152  RH  055%=      5-min Rain = 0
KOES 071025Z 19008KT 26/15 A3002 RMK A01 T02560152  RH  055%=      5-min Rain = 0
KOES 071030Z 19009KT 26/15 A3002 RMK A01 T02560151  RH  055%=      5-min Rain = 0
KOES 071035Z 19009KT 26/15 A3001 RMK A01 T02550151  RH  055%=      5-min Rain = 0
KOES 071040Z 19008KT 25/15 A3001 RMK A01 T02540152  RH  055%=      5-min Rain = 0
KOES 071045Z 19008KT 25/15 A3001 RMK A01 T02530152  RH  056%=      5-min Rain = 0
KOES 071050Z 18009KT 25/15 A3001 RMK A01 T02530152  RH  056%=      5-min Rain = 0
KOES 071055Z 18009KT 25/15 A3001 RMK A01 T02540151  RH  056%=      5-min Rain = 0
KOES 071100Z 18008KT 25/15 A3001 RMK A01 T02540152  RH  056%=      5-min Rain = 0
KOES 071105Z 18007KT 25/15 A3002 RMK A01 T02530152  RH  056%=      5-min Rain = 0
KOES 071110Z 19007KT 25/15 A3002 RMK A01 T02520152  RH  056%=      5-min Rain = 0
KOES 071115Z 18007KT 25/15 A3002 RMK A01 T02520152  RH  056%=      5-min Rain = 0
KOES 071120Z 18008KT 25/15 A3002 RMK A01 T02520152  RH  056%=      5-min Rain = 0
KOES 071125Z 18008KT 25/15 A3002 RMK A01 T02520152  RH  056%=      5-min Rain = 0
KOES 071130Z 17008KT 25/15 A3002 RMK A01 T02520152  RH  056%=      5-min Rain = 0
KOES 071135Z 17008KT 25/15 A3002 RMK A01 T02510152  RH  057%=      5-min Rain = 0
KOES 071140Z 17008G13KT 25/15 A3002 RMK A01 T02510153  RH  057%=      5-min Rain = 0
KOES 071145Z 18009KT 25/15 A3002 RMK A01 T02500153  RH  057%=      5-min Rain = 0
KOES 071150Z 19007KT 25/15 A3003 RMK A01 T02500153  RH  057%=      5-min Rain = 0
KOES 071155Z 18008KT 25/15 A3003 RMK A01 T02500153  RH  057%=      5-min Rain = 0
KOES 071200Z 18009KT 25/15 A3003 RMK A01 T02500153  RH  057%=      5-min Rain = 0
KOES 071205Z 18009KT 25/15 A3003 RMK A01 T02500153  RH  058%=      5-min Rain = 0
KOES 071210Z 18010KT 25/15 A3003 RMK A01 T02490153  RH  058%=      5-min Rain = 0
KOES 071215Z 18009KT 25/15 A3003 RMK A01 T02490153  RH  058%=      5-min Rain = 0
KOES 071220Z 18010KT 25/15 A3003 RMK A01 T02490153  RH  058%=      5-min Rain = 0
KOES 071225Z 18010KT 25/15 A3004 RMK A01 T02490153  RH  058%=      5-min Rain = 0
KOES 071230Z 19008KT 25/15 A3004 RMK A01 T02490154  RH  058%=      5-min Rain = 0
KOES 071235Z 19008KT 25/16 A3004 RMK A01 T02480155  RH  059%=      5-min Rain = 0
KOES 071240Z 19009KT 25/15 A3004 RMK A01 T02470154  RH  059%=      5-min Rain = 0
KOES 071245Z 19009KT 25/15 A3004 RMK A01 T02460154  RH  059%=      5-min Rain = 0
KOES 071250Z 19009KT 25/16 A3004 RMK A01 T02460155  RH  060%=      5-min Rain = 0
KOES 071255Z 19010KT 25/16 A3004 RMK A01 T02450155  RH  060%=      5-min Rain = 0
KOES 071300Z 19010KT 25/16 A3004 RMK A01 T02450156  RH  060%=      5-min Rain = 0
KOES 071305Z 19011KT 24/16 A3004 RMK A01 T02440155  RH  061%=      5-min Rain = 0
KOES 071310Z 19012KT 24/16 A3004 RMK A01 T02440156  RH  061%=      5-min Rain = 0
KOES 071315Z 18011KT 24/16 A3004 RMK A01 T02440157  RH  061%=      5-min Rain = 0
KOES 071320Z 19010KT 24/16 A3004 RMK A01 T02440157  RH  061%=      5-min Rain = 0
KOES 071325Z 18010KT 24/16 A3005 RMK A01 T02430158  RH  062%=      5-min Rain = 0
KOES 071330Z 18010KT 24/16 A3005 RMK A01 T02430158  RH  062%=      5-min Rain = 0
KOES 071335Z 18010KT 24/16 A3005 RMK A01 T02420157  RH  062%=      5-min Rain = 0
KOES 071340Z 18009KT 24/16 A3005 RMK A01 T02420158  RH  062%=      5-min Rain = 0
KOES 071345Z 18009KT 24/16 A3005 RMK A01 T02410158  RH  062%=      5-min Rain = 0
KOES 071350Z 18009KT 24/16 A3005 RMK A01 T02420159  RH  062%=      5-min Rain = 0
KOES 071355Z 18010KT 25/16 A3005 RMK A01 T02450160  RH  062%=      5-min Rain = 0
KOES 071400Z 18011KT 25/16 A3006 RMK A01 T02470162  RH  062%=      5-min Rain = 0
KOES 071405Z 18010G17KT 25/16 A3006 RMK A01 T02480163  RH  062%=      5-min Rain = 0
KOES 071410Z 18012KT 25/16 A3006 RMK A01 T02480164  RH  063%=      5-min Rain = 0
KOES 071415Z 18013G18KT 25/17 A3006 RMK A01 T02520165  RH  062%=      5-min Rain = 0
KOES 071420Z 18012G17KT 25/17 A3006 RMK A01 T02540167  RH  061%=      5-min Rain = 0
KOES 071425Z 18011G16KT 26/17 A3006 RMK A01 T02560168  RH  061%=      5-min Rain = 0
KOES 071430Z 18013KT 26/17 A3006 RMK A01 T02580169  RH  061%=      5-min Rain = 0
KOES 071435Z 18012G17KT 26/17 A3006 RMK A01 T02610171  RH  061%=      5-min Rain = 0
KOES 071440Z 18015G22KT 26/17 A3006 RMK A01 T02640172  RH  060%=      5-min Rain = 0
KOES 071445Z 18018G24KT 27/17 A3006 RMK A01 T02660170  RH  058%=      5-min Rain = 0
KOES 071450Z 19018G25KT 27/17 A3006 RMK A01 T02680169  RH  058%=      5-min Rain = 0
KOES 071455Z 19015G21KT 27/17 A3006 RMK A01 T02700172  RH  058%=      5-min Rain = 0
KOES 071500Z 19016G22KT 27/17 A3006 RMK A01 T02730172  RH  057%=      5-min Rain = 0
KOES 071505Z 19016G22KT 27/17 A3006 RMK A01 T02730172  RH  057%=      5-min Rain = 0
KOES 071510Z 18017KT 28/17 A3006 RMK A01 T02750171  RH  056%=      5-min Rain = 0
KOES 071515Z 18016G23KT 28/17 A3006 RMK A01 T02760171  RH  056%=      5-min Rain = 0
KOES 071520Z 19017G25KT 28/17 A3006 RMK A01 T02770169  RH  054%=      5-min Rain = 0
KOES 071525Z 18016G23KT 28/17 A3006 RMK A01 T02790169  RH  054%=      5-min Rain = 0
KOES 071530Z 18014G20KT 28/17 A3006 RMK A01 T02840169  RH  052%=      5-min Rain = 0
KOES 071535Z 18014KT 29/17 A3006 RMK A01 T02850169  RH  052%=      5-min Rain = 0
KOES 071540Z 18015G24KT 29/17 A3006 RMK A01 T02880167  RH  050%=      5-min Rain = 0
KOES 071545Z 18018G24KT 29/17 A3006 RMK A01 T02860165  RH  050%=      5-min Rain = 0
KOES 071550Z 18016G23KT 29/16 A3006 RMK A01 T02880164  RH  049%=      5-min Rain = 0
KOES 071555Z 18016G22KT 29/17 A3006 RMK A01 T02890166  RH  050%=      5-min Rain = 0
KOES 071600Z 18016G21KT 29/17 A3006 RMK A01 T02910165  RH  049%=      5-min Rain = 0
KOES 071605Z 19017G22KT 30/16 A3006 RMK A01 T02950162  RH  047%=      5-min Rain = 0
KOES 071610Z 19015G21KT 30/16 A3007 RMK A01 T02970163  RH  047%=      5-min Rain = 0
KOES 071615Z 18017G24KT 30/16 A3006 RMK A01 T02990162  RH  046%=      5-min Rain = 0
KOES 071620Z 18015G21KT 30/16 A3006 RMK A01 T03000163  RH  046%=      5-min Rain = 0
KOES 071625Z 18015G24KT 30/16 A3007 RMK A01 T03030163  RH  045%=      5-min Rain = 0
KOES 071630Z 18015G22KT 31/16 A3006 RMK A01 T03050160  RH  044%=      5-min Rain = 0
KOES 071635Z 18015G22KT 31/16 A3006 RMK A01 T03050159  RH  043%=      5-min Rain = 0
KOES 071640Z 18013G19KT 31/16 A3007 RMK A01 T03080160  RH  043%=      5-min Rain = 0
KOES 071645Z 19015KT 31/16 A3007 RMK A01 T03080162  RH  043%=      5-min Rain = 0
KOES 071650Z 18013G19KT 31/16 A3007 RMK A01 T03110162  RH  043%=      5-min Rain = 0
KOES 071655Z 18014G21KT 31/16 A3007 RMK A01 T03140163  RH  042%=      5-min Rain = 0
KOES 071700Z 18015G21KT 32/16 A3007 RMK A01 T03150161  RH  041%=      5-min Rain = 0
KOES 071705Z 18017KT 32/16 A3007 RMK A01 T03150155  RH  040%=      5-min Rain = 0
KOES 071710Z 18015G21KT 32/16 A3006 RMK A01 T03160157  RH  040%=      5-min Rain = 0
KOES 071715Z 18014G23KT 32/16 A3006 RMK A01 T03170155  RH  039%=      5-min Rain = 0
KOES 071720Z 18015G22KT 32/15 A3006 RMK A01 T03210152  RH  038%=      5-min Rain = 0
KOES 071725Z 19016G24KT 32/15 A3006 RMK A01 T03210153  RH  038%=      5-min Rain = 0
KOES 071730Z 19016G23KT 32/15 A3006 RMK A01 T03220153  RH  038%=      5-min Rain = 0
KOES 071735Z 18014G20KT 33/16 A3006 RMK A01 T03250156  RH  038%=      5-min Rain = 0
KOES 071740Z 19017G23KT 33/15 A3006 RMK A01 T03250145  RH  035%=      5-min Rain = 0
KOES 071745Z 18015G23KT 33/15 A3006 RMK A01 T03290151  RH  036%=      5-min Rain = 0
KOES 071750Z 17015G21KT 33/15 A3005 RMK A01 T03270153  RH  037%=      5-min Rain = 0
KOES 071755Z 18015G20KT 33/15 A3005 RMK A01 T03300149  RH  035%=      5-min Rain = 0
KOES 071800Z 18016G23KT 33/15 A3005 RMK A01 T03300149  RH  035%=      5-min Rain = 0
KOES 071805Z 18013G20KT 33/15 A3005 RMK A01 T03330148  RH  034%=      5-min Rain = 0
KOES 071810Z 18014G23KT 34/15 A3005 RMK A01 T03370151  RH  034%=      5-min Rain = 0
KOES 071815Z 18014G22KT 34/14 A3005 RMK A01 T03350144  RH  033%=      5-min Rain = 0
KOES 071820Z 17014G22KT 33/14 A3005 RMK A01 T03330139  RH  032%=      5-min Rain = 0
KOES 071825Z 18012G19KT 33/15 A3005 RMK A01 T03330145  RH  034%=      5-min Rain = 0
KOES 071830Z 19014G20KT 34/14 A3005 RMK A01 T03400142  RH  032%=      5-min Rain = 0
KOES 071835Z 17015G21KT 34/14 A3005 RMK A01 T03400140  RH  031%=      5-min Rain = 0
KOES 071840Z 16012G17KT 34/14 A3004 RMK A01 T03420140  RH  031%=      5-min Rain = 0
KOES 071845Z 18013G19KT 34/14 A3004 RMK A01 T03420139  RH  031%=      5-min Rain = 0
KOES 071850Z 18013G18KT 34/14 A3004 RMK A01 T03420136  RH  030%=      5-min Rain = 0
KOES 071855Z 19014G19KT 34/14 A3004 RMK A01 T03420137  RH  030%=      5-min Rain = 0
KOES 071900Z 17012G20KT 35/14 A3004 RMK A01 T03450135  RH  029%=      5-min Rain = 0
KOES 071905Z 17012G20KT 35/14 A3004 RMK A01 T03490137  RH  029%=      5-min Rain = 0
KOES 071910Z 18013G18KT 35/13 A3004 RMK A01 T03510130  RH  028%=      5-min Rain = 0
KOES 071915Z 19012G18KT 35/14 A3004 RMK A01 T03520137  RH  029%=      5-min Rain = 0
KOES 071920Z 18012G17KT 35/14 A3004 RMK A01 T03530136  RH  028%=      5-min Rain = 0
KOES 071925Z 18012KT 35/13 A3003 RMK A01 T03540131  RH  027%=      5-min Rain = 0
KOES 071930Z 18013G19KT 35/13 A3003 RMK A01 T03540130  RH  027%=      5-min Rain = 0
KOES 071935Z 17011G18KT 36/14 A3003 RMK A01 T03550137  RH  028%=      5-min Rain = 0
KOES 071940Z 18010G16KT 36/14 A3003 RMK A01 T03570141  RH  029%=      5-min Rain = 0
KOES 071945Z 18012G18KT 36/13 A3003 RMK A01 T03610133  RH  027%=      5-min Rain = 0
KOES 071950Z 17015G23KT 36/14 A3003 RMK A01 T03610136  RH  027%=      5-min Rain = 0
KOES 071955Z 18014G20KT 35/12 A3003 RMK A01 T03540123  RH  026%=      5-min Rain = 0
KOES 072000Z 18013G18KT 35/13 A3003 RMK A01 T03540130  RH  027%=      5-min Rain = 0
KOES 072005Z 18014G21KT 35/13 A3003 RMK A01 T03540132  RH  027%=      5-min Rain = 0
KOES 072010Z 18012G18KT 36/13 A3003 RMK A01 T03560134  RH  028%=      5-min Rain = 0
KOES 072015Z 17012G20KT 35/14 A3002 RMK A01 T03540135  RH  028%=      5-min Rain = 0
KOES 072020Z 20013KT 35/12 A3002 RMK A01 T03520123  RH  026%=      5-min Rain = 0
KOES 072025Z 20012G17KT 36/13 A3002 RMK A01 T03590125  RH  026%=      5-min Rain = 0
KOES 072030Z 18013G20KT 36/13 A3002 RMK A01 T03620130  RH  026%=      5-min Rain = 0
KOES 072035Z 16011G18KT 36/13 A3002 RMK A01 T03610125  RH  025%=      5-min Rain = 0
KOES 072040Z 16013G22KT 36/13 A3002 RMK A01 T03630125  RH  025%=      5-min Rain = 0
KOES 072045Z 18013G18KT 36/13 A3001 RMK A01 T03630125  RH  025%=      5-min Rain = 0
KOES 072050Z 19012G21KT 37/12 A3001 RMK A01 T03660122  RH  024%=      5-min Rain = 0
KOES 072055Z 18010KT 36/13 A3001 RMK A01 T03640126  RH  025%=      5-min Rain = 0
KOES 072100Z 17010G15KT 37/13 A3001 RMK A01 T03660130  RH  025%=      5-min Rain = 0
KOES 072105Z 18012G17KT 37/13 A3001 RMK A01 T03670125  RH  024%=      5-min Rain = 0
KOES 072110Z 17011G17KT 37/13 A3001 RMK A01 T03680125  RH  024%=      5-min Rain = 0
KOES 072115Z 18011KT 36/13 A3001 RMK A01 T03640125  RH  025%=      5-min Rain = 0
KOES 072120Z 18011G16KT 36/12 A3001 RMK A01 T03640120  RH  024%=      5-min Rain = 0
KOES 072125Z 16011KT 36/12 A3001 RMK A01 T03630119  RH  024%=      5-min Rain = 0
KOES 072130Z 17010G15KT 37/12 A30 RMK A01 T03650120  RH  024%=      5-min Rain = 0
KOES 072135Z 17010G16KT 37/12 A30 RMK A01 T03670121  RH  024%=      5-min Rain = 0
KOES 072140Z 17011KT 37/12 A30 RMK A01 T03690120  RH  023%=      5-min Rain = 0
KOES 072145Z 16009G14KT 37/12 A30 RMK A01 T03680117  RH  023%=      5-min Rain = 0
KOES 072150Z 15009G14KT 37/12 A30 RMK A01 T03700116  RH  023%=      5-min Rain = 0
KOES 072155Z 16010G16KT 37/12 A30 RMK A01 T03680115  RH  023%=      5-min Rain = 0
KOES 072200Z 17010KT 37/12 A30 RMK A01 T03670119  RH  023%=      5-min Rain = 0
KOES 072205Z 18011G17KT 37/12 A30 RMK A01 T03680120  RH  023%=      5-min Rain = 0
KOES 072210Z 18011G18KT 37/12 A30 RMK A01 T03650117  RH  023%=      5-min Rain = 0
KOES 072215Z 19011KT 37/12 A2999 RMK A01 T03680121  RH  024%=      5-min Rain = 0
KOES 072220Z 17010G15KT 36/12 A30 RMK A01 T03610124  RH  025%=      5-min Rain = 0
KOES 072225Z 16009G16KT 36/12 A30 RMK A01 T03570123  RH  025%=      5-min Rain = 0
KOES 072230Z 17008KT 36/12 A30 RMK A01 T03560124  RH  026%=      5-min Rain = 0
KOES 072235Z 18012G18KT 35/12 A2999 RMK A01 T03540120  RH  025%=      5-min Rain = 0
KOES 072240Z 17009G15KT 35/12 A2999 RMK A01 T03520122  RH  026%=      5-min Rain = 0
KOES 072245Z 16009G14KT 35/12 A2999 RMK A01 T03520121  RH  026%=      5-min Rain = 0
KOES 072250Z 17010KT 35/12 A30 RMK A01 T03510123  RH  026%=      5-min Rain = 0
KOES 072255Z 17009KT 35/12 A30 RMK A01 T03510122  RH  026%=      5-min Rain = 0
KOES 072300Z 16009G14KT 35/12 A30 RMK A01 T03510123  RH  026%=      5-min Rain = 0
KOES 072305Z 15009KT 35/13 A2999 RMK A01 T03530127  RH  027%=      5-min Rain = 0
KOES 072310Z 15009G14KT 36/13 A2999 RMK A01 T03590130  RH  026%=      5-min Rain = 0
KOES 072315Z 15012G18KT 36/13 A2999 RMK A01 T03630130  RH  026%=      5-min Rain = 0
KOES 072320Z 15010G17KT 36/13 A2999 RMK A01 T03620128  RH  026%=      5-min Rain = 0
KOES 072325Z 15012KT 36/12 A2999 RMK A01 T03590124  RH  025%=      5-min Rain = 0
KOES 072330Z 15012G17KT 36/12 A2999 RMK A01 T03590123  RH  025%=      5-min Rain = 0
KOES 072335Z 15012KT 36/12 A2999 RMK A01 T03580122  RH  025%=      5-min Rain = 0
KOES 072340Z 16010G15KT 36/12 A2999 RMK A01 T03560124  RH  026%=      5-min Rain = 0
KOES 072345Z 15011G16KT 35/12 A2999 RMK A01 T03530121  RH  026%=      5-min Rain = 0
KOES 072350Z 15010G15KT 35/12 A2999 RMK A01 T03500119  RH  026%=      5-min Rain = 0
KOES 072355Z 17010KT 35/12 A2999 RMK A01 T03480118  RH  026%=      5-min Rain = 0
KOES 080000Z 16009G14KT 35/12 A2999 RMK A01 T03460120  RH  026%=      5-min Rain = 0
KOES 080005Z 17009G14KT 35/12 A2999 RMK A01 T03450120  RH  026%=      5-min Rain = 0
KOES 080010Z 17008KT 34/12 A2999 RMK A01 T03440122  RH  027%=      5-min Rain = 0
KOES 080015Z 17008KT 34/12 A30 RMK A01 T03430123  RH  028%=      5-min Rain = 0
KOES 080020Z 16009G14KT 34/12 A30 RMK A01 T03420123  RH  028%=      5-min Rain = 0
KOES 080025Z 16007KT 34/12 A30 RMK A01 T03410123  RH  028%=      5-min Rain = 0
KOES 080030Z 16006KT 34/13 A30 RMK A01 T03410125  RH  028%=      5-min Rain = 0
KOES 080035Z 17008KT 34/13 A30 RMK A01 T03400126  RH  029%=      5-min Rain = 0
KOES 080040Z 17009KT 34/13 A30 RMK A01 T03400126  RH  028%=      5-min Rain = 0
KOES 080045Z 17009KT 34/12 A30 RMK A01 T03410124  RH  028%=      5-min Rain = 0
KOES 080050Z 16009KT 34/12 A3001 RMK A01 T03410124  RH  028%=      5-min Rain = 0
KOES 080055Z 17009KT 34/12 A3001 RMK A01 T03400123  RH  028%=      5-min Rain = 0
KOES 080100Z 16009KT 34/12 A3001 RMK A01 T03390121  RH  028%=      5-min Rain = 0
KOES 080105Z 16009G15KT 34/12 A3001 RMK A01 T03380121  RH  028%=      5-min Rain = 0
KOES 080110Z 17009KT 34/12 A3001 RMK A01 T03360121  RH  028%=      5-min Rain = 0
KOES 080115Z 17010KT 34/12 A3001 RMK A01 T03350119  RH  028%=      5-min Rain = 0
KOES 080120Z 17010KT 33/12 A3001 RMK A01 T03340117  RH  028%=      5-min Rain = 0
KOES 080125Z 16009G14KT 33/12 A3002 RMK A01 T03330116  RH  028%=      5-min Rain = 0
KOES 080130Z 17009KT 33/12 A3002 RMK A01 T03320115  RH  028%=      5-min Rain = 0
KOES 080135Z 16009KT 33/12 A3001 RMK A01 T03300115  RH  028%=      5-min Rain = 0
KOES 080140Z 17009KT 33/12 A3001 RMK A01 T03290116  RH  028%=      5-min Rain = 0
KOES 080145Z 17009KT 33/12 A3001 RMK A01 T03270117  RH  029%=      5-min Rain = 0
KOES 080150Z 16008G13KT 33/12 A3001 RMK A01 T03250117  RH  029%=      5-min Rain = 0
KOES 080155Z 16007G12KT 32/12 A3002 RMK A01 T03230118  RH  030%=      5-min Rain = 0
KOES 080200Z 16007KT 32/12 A3002 RMK A01 T03210117  RH  030%=      5-min Rain = 0
KOES 080205Z 17008KT 32/12 A3002 RMK A01 T03200116  RH  030%=      5-min Rain = 0
KOES 080210Z 17007KT 32/12 A3002 RMK A01 T03180116  RH  030%=      5-min Rain = 0
KOES 080215Z 17007KT 32/12 A3002 RMK A01 T03160117  RH  031%=      5-min Rain = 0
KOES 080220Z 17007KT 31/12 A3002 RMK A01 T03140117  RH  031%=      5-min Rain = 0
KOES 080225Z 17007KT 31/12 A3003 RMK A01 T03140117  RH  031%=      5-min Rain = 0
KOES 080230Z 17008KT 31/12 A3003 RMK A01 T03130119  RH  032%=      5-min Rain = 0
KOES 080235Z 17007KT 31/12 A3003 RMK A01 T03110120  RH  032%=      5-min Rain = 0
KOES 080240Z 17007KT 31/12 A3003 RMK A01 T03110121  RH  032%=      5-min Rain = 0
KOES 080245Z 17007KT 31/12 A3004 RMK A01 T03090121  RH  033%=      5-min Rain = 0
KOES 080250Z 17007KT 31/12 A3004 RMK A01 T03090122  RH  033%=      5-min Rain = 0
KOES 080255Z 17007KT 31/12 A3005 RMK A01 T03070124  RH  034%=      5-min Rain = 0
KOES 080300Z 17008KT 31/13 A3005 RMK A01 T03070125  RH  034%=      5-min Rain = 0
KOES 080305Z 17008KT 31/13 A3005 RMK A01 T03070126  RH  034%=      5-min Rain = 0
KOES 080310Z 17009KT 31/13 A3005 RMK A01 T03070127  RH  034%=      5-min Rain = 0
KOES 080315Z 17008KT 31/13 A3006 RMK A01 T03070127  RH  035%=      5-min Rain = 0
KOES 080320Z 17009KT 31/13 A3006 RMK A01 T03060128  RH  035%=      5-min Rain = 0
KOES 080325Z 17008KT 31/13 A3006 RMK A01 T03050129  RH  035%=      5-min Rain = 0
KOES 080330Z 17008KT 30/13 A3007 RMK A01 T03040130  RH  036%=      5-min Rain = 0
KOES 080335Z 17008KT 30/13 A3007 RMK A01 T03030130  RH  036%=      5-min Rain = 0
KOES 080340Z 17009G14KT 30/13 A3007 RMK A01 T03040130  RH  036%=      5-min Rain = 0
KOES 080345Z 18009KT 30/13 A3008 RMK A01 T03040130  RH  036%=      5-min Rain = 0
KOES 080350Z 19008KT 30/13 A3008 RMK A01 T03020130  RH  036%=      5-min Rain = 0
KOES 080355Z 19007KT 30/13 A3008 RMK A01 T03000131  RH  037%=      5-min Rain = 0
KOES 080400Z 18008KT 30/13 A3009 RMK A01 T03000131  RH  037%=      5-min Rain = 0
KOES 080405Z 19007KT 30/13 A3009 RMK A01 T02990131  RH  037%=      5-min Rain = 0
KOES 080410Z 19006KT 30/13 A3009 RMK A01 T02990132  RH  037%=      5-min Rain = 0
KOES 080415Z 21006KT 30/13 A301 RMK A01 T02970133  RH  038%=      5-min Rain = 0
KOES 080420Z 26010G17KT 29/13 A3012 RMK A01 T02940134  RH  039%=      5-min Rain = 0
KOES 080425Z 29018G25KT 29/14 A3013 RMK A01 T02870141  RH  043%=      5-min Rain = 0
KOES 080430Z 29017G25KT 28/15 A3013 RMK A01 T02810145  RH  045%=      5-min Rain = 0
KOES 080435Z 31022G30KT 28/14 A3013 RMK A01 T02820144  RH  045%=      5-min Rain = 0
KOES 080440Z 30016G22KT 28/15 A3014 RMK A01 T02780146  RH  046%=      5-min Rain = 0
KOES 080445Z 31012G19KT 28/15 A3014 RMK A01 T02770147  RH  047%=      5-min Rain = 0
KOES 080450Z 32014KT 27/15 A3014 RMK A01 T02740148  RH  048%=      5-min Rain = 0
KOES 080455Z 32014KT 27/15 A3014 RMK A01 T02720150  RH  049%=      5-min Rain = 0

Page generated in 0.0347 seconds.